Time;durP1;ratioP1;P1;durP2;ratioP2;P2;SDS_P1;SDS_P2;PMS_P1;PMS_P2;Temp;Humidity;BMP_temperature;BMP_pressure;BME280_temperature;BME280_humidity;BME280_pressure;Samples;Min_cycle;Max_cycle;Signal;HPM_P1;HPM_P2
2022/08/12 00:42:52;;;;;;;6.90;3.20;;;;;;;21.78;71.39;102130.16;5008011;28;20041;-63
2022/08/12 00:45:18;;;;;;;8.57;3.45;;;;;;;21.77;71.40;102132.94;5008165;28;20028;-63
2022/08/12 00:47:43;;;;;;;4.95;3.10;;;;;;;21.76;71.28;102131.22;5007994;28;20040;-64
2022/08/12 00:50:17;;;;;;;9.52;3.55;;;;;;;21.71;71.80;102124.25;4990687;28;20034;-64
2022/08/12 00:52:44;;;;;;;4.78;3.05;;;;;;;21.70;71.21;102119.88;5006788;28;20489;-63
2022/08/12 00:55:09;;;;;;;4.57;3.30;;;;;;;21.77;71.41;102122.22;5006962;28;20021;-65
2022/08/12 00:57:35;;;;;;;6.13;3.42;;;;;;;21.71;71.44;102124.25;5006299;28;20034;-64
2022/08/12 01:00:17;;;;;;;4.70;3.22;;;;;;;21.75;71.10;102122.31;5007936;28;20109;-62
2022/08/12 01:02:46;;;;;;;4.40;3.20;;;;;;;21.81;71.24;102123.75;5007285;28;20103;-63
2022/08/12 01:13:32;;;;;;;4.28;3.30;;;;;;;21.62;71.93;102122.16;5005603;28;20103;-63
2022/08/12 01:16:00;;;;;;;5.38;3.28;;;;;;;21.62;71.81;102115.94;5007127;28;20024;-64
2022/08/12 01:18:27;;;;;;;5.27;3.23;;;;;;;21.65;71.84;102111.25;5005959;28;20117;-63
2022/08/12 01:21:02;;;;;;;7.63;3.40;;;;;;;21.67;71.42;102122.75;5007648;28;20033;-63
2022/08/12 01:23:40;;;;;;;5.97;3.15;;;;;;;21.64;71.70;102122.91;4989786;28;20036;-63
2022/08/12 01:26:09;;;;;;;4.83;3.27;;;;;;;21.62;71.76;102122.16;5007529;28;20080;-63
2022/08/12 01:28:37;;;;;;;4.28;3.55;;;;;;;21.63;71.79;102126.56;5007554;28;20105;-63
2022/08/12 01:31:04;;;;;;;4.35;3.80;;;;;;;21.57;71.85;102122.44;4989294;28;20026;-63
2022/08/12 01:33:43;;;;;;;4.03;3.10;;;;;;;21.52;72.29;102124.53;4988726;28;20025;-64
2022/08/12 01:36:10;;;;;;;8.65;3.00;;;;;;;21.44;72.44;102121.47;4974360;28;20018;-63
2022/08/12 01:38:36;;;;;;;4.05;3.22;;;;;;;21.35;72.61;102122.88;4986484;28;20092;-65
2022/08/12 01:41:02;;;;;;;6.55;3.53;;;;;;;21.31;73.18;102126.69;4986657;28;20096;-63
2022/08/12 01:43:29;;;;;;;4.00;3.45;;;;;;;21.21;74.51;102121.88;4987549;28;20022;-65
2022/08/12 01:46:21;;;;;;;4.30;3.20;;;;;;;21.18;74.31;102127.41;4987184;28;20105;-66
2022/08/12 01:49:19;;;;;;;6.18;3.58;;;;;;;21.12;74.73;102125.09;4970140;28;20037;-63
2022/08/12 01:51:50;;;;;;;9.25;3.47;;;;;;;21.08;75.04;102118.19;4970072;28;20022;-64
2022/08/12 01:54:17;;;;;;;5.05;3.42;;;;;;;21.03;75.30;102118.47;4985098;28;20057;-65
2022/08/12 01:56:49;;;;;;;5.10;3.70;;;;;;;20.91;76.03;102117.34;5005958;28;20109;-65
2022/08/12 02:02:08;;;;;;;4.95;3.90;;;;;;;20.87;76.07;102107.75;4990372;28;20461;-65
2022/08/12 02:11:38;;;;;;;7.38;4.15;;;;;;;20.67;77.23;102103.50;4992147;28;20119;-67
2022/08/12 02:14:30;;;;;;;7.72;3.80;;;;;;;20.65;77.04;102103.59;4985591;28;20042;-66
2022/08/12 02:17:21;;;;;;;11.85;4.80;;;;;;;20.59;77.52;102101.31;4987245;28;20034;-66
2022/08/12 02:19:59;;;;;;;11.45;4.47;;;;;;;20.60;77.34;102102.16;5005967;28;20029;-65
2022/08/12 02:22:27;;;;;;;10.33;5.07;;;;;;;20.55;77.11;102107.75;5005005;28;20049;-66
2022/08/12 02:24:58;;;;;;;7.32;4.22;;;;;;;20.61;76.82;102101.19;5006814;28;20277;-64
2022/08/12 02:27:26;;;;;;;12.82;4.55;;;;;;;20.55;77.07;102091.69;4988581;28;20018;-64
2022/08/12 02:29:52;;;;;;;6.28;4.70;;;;;;;20.50;77.73;102093.78;4989598;28;20030;-65
2022/08/12 02:32:17;;;;;;;4.55;4.10;;;;;;;20.50;77.80;102093.78;5005595;28;20495;-64
2022/08/12 02:34:43;;;;;;;7.22;4.68;;;;;;;20.45;77.67;102096.72;5006262;28;20264;-64
2022/08/12 02:37:12;;;;;;;6.75;4.75;;;;;;;20.37;78.11;102094.47;5005295;28;20469;-66
2022/08/12 02:39:39;;;;;;;11.02;5.47;;;;;;;20.35;78.31;102099.06;5006366;28;20416;-64
2022/08/12 02:42:08;;;;;;;6.15;4.47;;;;;;;20.41;78.05;102095.16;4987282;28;20431;-63
2022/08/12 02:44:36;;;;;;;6.80;4.77;;;;;;;20.32;78.36;102091.19;4988498;28;20040;-63
2022/08/12 02:47:05;;;;;;;5.68;4.95;;;;;;;20.33;77.85;102092.91;5004599;28;20038;-63
2022/08/12 02:49:33;;;;;;;8.80;5.00;;;;;;;20.37;77.56;102091.78;4987390;28;20088;-63
2022/08/12 02:51:59;;;;;;;8.88;4.97;;;;;;;20.33;77.55;102092.91;5005938;28;20065;-65
2022/08/12 02:54:26;;;;;;;6.32;4.65;;;;;;;20.36;77.66;102087.38;5004664;28;20649;-65
2022/08/12 02:56:52;;;;;;;7.80;4.72;;;;;;;20.37;77.59;102089.09;4988593;28;20504;-65
2022/08/12 02:59:20;;;;;;;7.22;4.45;;;;;;;20.38;77.27;102076.59;5005677;28;20030;-64
2022/08/12 03:01:48;;;;;;;5.88;3.70;;;;;;;20.36;77.35;102079.34;5005022;28;20584;-64
2022/08/12 03:04:25;;;;;;;4.90;4.32;;;;;;;20.31;77.68;102078.75;4986702;28;20631;-63
2022/08/12 03:07:03;;;;;;;8.82;4.22;;;;;;;20.30;77.72;102085.94;5006263;28;20038;-63
2022/08/12 03:09:32;;;;;;;6.07;4.68;;;;;;;20.32;77.47;102078.66;4987023;28;20096;-63
2022/08/12 03:12:03;;;;;;;7.95;4.47;;;;;;;20.25;77.18;102069.25;5004951;28;20046;-63
2022/08/12 03:14:32;;;;;;;7.35;4.88;;;;;;;20.31;77.29;102068.03;5005657;28;20128;-64
2022/08/12 03:17:18;;;;;;;7.85;4.75;;;;;;;20.31;77.29;102068.03;5004995;28;20498;-63
2022/08/12 03:19:44;;;;;;;5.22;4.03;;;;;;;20.30;77.55;102067.19;5005282;28;20037;-64
2022/08/12 03:22:14;;;;;;;10.68;4.68;;;;;;;20.29;77.87;102059.25;5005710;28;20022;-64
2022/08/12 03:24:42;;;;;;;9.60;4.47;;;;;;;20.31;77.15;102065.34;5003735;28;20460;-64
2022/08/12 03:27:09;;;;;;;6.22;4.55;;;;;;;20.32;77.50;102070.63;5005075;28;20476;-64
2022/08/12 03:29:35;;;;;;;7.55;4.50;;;;;;;20.30;77.50;102060.97;5003876;28;20420;-64
2022/08/12 03:32:02;;;;;;;6.38;4.72;;;;;;;20.36;77.06;102060.63;5004206;28;20382;-65
2022/08/12 03:34:29;;;;;;;7.38;4.55;;;;;;;20.33;77.06;102064.34;5005119;28;20080;-64
2022/08/12 03:36:55;;;;;;;9.85;5.15;;;;;;;20.34;77.19;102062.50;4971805;28;20477;-64
2022/08/12 03:39:34;;;;;;;11.70;4.80;;;;;;;20.35;77.23;102056.22;5005557;28;20030;-64
2022/08/12 03:42:34;;;;;;;7.32;4.60;;;;;;;20.31;77.38;102057.31;4989394;28;20452;-65
2022/08/12 04:01:57;;;;;;;6.95;4.57;;;;;;;20.33;78.08;102068.81;5004680;28;20037;-65
2022/08/12 04:04:32;;;;;;;6.70;4.85;;;;;;;20.29;78.48;102064.59;5005111;28;20026;-64
2022/08/12 04:06:58;;;;;;;5.45;4.90;;;;;;;20.28;78.41;102061.06;5002748;28;20025;-64
2022/08/12 04:09:24;;;;;;;10.95;4.88;;;;;;;20.28;78.47;102061.06;4986657;28;20037;-63
2022/08/12 04:14:33;;;;;;;7.32;4.78;;;;;;;20.35;78.43;102053.56;5004096;28;20096;-65
2022/08/12 04:17:00;;;;;;;7.22;5.00;;;;;;;20.36;78.53;102060.63;5007839;28;20022;-64
2022/08/12 04:19:26;;;;;;;7.47;5.03;;;;;;;20.26;79.06;102059.41;5010950;28;20022;-64
2022/08/12 04:21:54;;;;;;;9.25;4.63;;;;;;;20.27;79.09;102059.34;5010949;28;20026;-64
2022/08/12 04:24:20;;;;;;;6.85;4.57;;;;;;;20.33;78.69;102044.75;5011683;28;20017;-64
2022/08/12 04:26:45;;;;;;;8.02;5.13;;;;;;;20.23;78.91;102055.09;5010513;28;20022;-65
2022/08/12 04:29:11;;;;;;;13.23;4.90;;;;;;;20.31;78.86;102046.63;5010037;28;20113;-63
2022/08/12 04:31:38;;;;;;;9.88;5.00;;;;;;;20.43;78.26;102050.41;5010188;28;20017;-64
2022/08/12 04:34:06;;;;;;;10.95;5.20;;;;;;;20.32;78.44;102048.38;5010802;28;20373;-63
2022/08/12 04:36:31;;;;;;;8.25;4.70;;;;;;;20.35;78.62;102050.88;5010469;28;20022;-63
2022/08/12 04:39:00;;;;;;;10.23;5.10;;;;;;;20.33;79.15;102053.63;5010735;28;20112;-65
2022/08/12 04:41:26;;;;;;;;;;;;;;;20.44;78.40;102053.00;5010664;28;20018;-65
2022/08/12 04:43:52;;;;;;;8.55;4.15;;;;;;;20.43;78.49;102053.09;4993251;28;19959;-64
2022/08/12 04:46:18;;;;;;;6.82;4.55;;;;;;;20.47;77.58;102051.13;5009851;28;20037;-64
2022/08/12 04:48:45;;;;;;;8.50;4.93;;;;;;;20.45;78.21;102053.88;5010645;28;20103;-64
2022/08/12 04:51:11;;;;;;;7.53;5.28;;;;;;;20.48;78.47;102063.53;4992150;28;20030;-64
2022/08/12 04:53:36;;;;;;;11.73;4.78;;;;;;;20.50;78.34;102058.97;5010956;28;20033;-64
2022/08/12 04:56:01;;;;;;;6.85;5.45;;;;;;;20.52;77.92;102065.09;5009516;28;20030;-65
2022/08/12 04:58:27;;;;;;;7.38;4.60;;;;;;;20.51;77.75;102058.91;5010139;28;20105;-65
2022/08/12 05:00:53;;;;;;;6.32;5.28;;;;;;;20.51;77.80;102063.38;4990858;28;20029;-65
2022/08/12 05:03:18;;;;;;;7.00;4.88;;;;;;;20.48;77.91;102056.38;5010824;28;20026;-63
2022/08/12 05:05:45;;;;;;;12.88;4.90;;;;;;;20.54;77.83;102064.06;5010138;28;20048;-63
2022/08/12 05:08:12;;;;;;;8.15;4.82;;;;;;;20.61;77.20;102066.38;5010307;28;20022;-64
2022/08/12 05:10:37;;;;;;;10.10;4.97;;;;;;;20.68;76.86;102065.94;5009974;28;20558;-64
2022/08/12 05:13:21;;;;;;;8.25;4.80;;;;;;;20.72;77.12;102077.34;5010960;28;20034;-64
2022/08/12 05:15:47;;;;;;;5.43;4.88;;;;;;;20.75;76.63;102070.94;5008847;28;20080;-65
2022/08/12 05:18:13;;;;;;;7.03;4.45;;;;;;;20.73;76.67;102075.53;5010640;28;20034;-65
2022/08/12 05:20:39;;;;;;;4.80;4.38;;;;;;;20.71;76.83;102071.13;4991690;28;20022;-65
2022/08/12 05:23:16;;;;;;;8.82;4.95;;;;;;;20.71;76.91;102071.13;5009745;28;20034;-65
2022/08/12 05:25:43;;;;;;;9.73;5.28;;;;;;;20.78;77.05;102062.75;4999171;28;20014;-63
2022/08/12 05:28:09;;;;;;;5.13;4.63;;;;;;;20.84;76.66;102065.91;4989026;28;20021;-64
2022/08/12 05:30:34;;;;;;;8.23;4.97;;;;;;;20.78;77.06;102065.41;4987381;28;20026;-65
2022/08/12 05:33:04;;;;;;;12.57;5.65;;;;;;;20.67;77.40;102066.91;5003874;28;20034;-65
2022/08/12 05:35:35;;;;;;;8.48;5.07;;;;;;;20.81;76.84;102070.59;4989494;28;20030;-64
2022/08/12 05:40:47;;;;;;;9.88;5.18;;;;;;;21.00;75.80;102072.22;5006039;28;20029;-64
2022/08/12 05:43:13;;;;;;;6.55;4.80;;;;;;;21.00;76.20;102082.94;5002620;28;20730;-62
2022/08/12 05:45:38;;;;;;;15.60;5.05;;;;;;;21.10;75.67;102092.16;4996551;28;20022;-66
2022/08/12 05:48:05;;;;;;;9.82;5.30;;;;;;;21.07;75.84;102092.38;4997275;28;20034;-65
2022/08/12 05:50:30;;;;;;;8.23;5.07;;;;;;;21.09;75.53;102090.44;4994911;28;20053;-66
2022/08/12 05:52:56;;;;;;;8.20;5.38;;;;;;;21.27;74.86;102092.97;4994411;28;20080;-65
2022/08/12 05:55:21;;;;;;;9.48;4.97;;;;;;;21.42;74.79;102092.06;4988346;28;20026;-64
2022/08/12 05:57:54;;;;;;;6.18;5.20;;;;;;;21.40;74.80;102088.59;5006645;28;20137;-64
2022/08/12 06:00:24;;;;;;;8.02;4.70;;;;;;;21.51;74.29;102079.03;5005930;28;20439;-65
2022/08/12 06:02:50;;;;;;;6.80;5.00;;;;;;;21.43;74.75;102090.25;5005899;28;20026;-64
2022/08/12 06:05:15;;;;;;;6.30;5.25;;;;;;;21.59;74.15;102084.81;5006653;28;20450;-64
2022/08/12 06:07:45;;;;;;;11.25;5.07;;;;;;;21.55;73.87;102085.97;4991476;28;20108;-64
2022/08/12 06:10:10;;;;;;;6.57;4.80;;;;;;;21.58;73.84;102096.47;4994694;28;20751;-65
2022/08/12 06:12:36;;;;;;;5.68;4.70;;;;;;;21.65;73.67;102086.25;4995303;28;20189;-65
2022/08/12 06:15:03;;;;;;;7.90;5.25;;;;;;;21.74;73.52;102090.19;4993926;28;20057;-65
2022/08/12 06:17:29;;;;;;;8.57;4.93;;;;;;;21.83;73.41;102089.66;4993707;28;20473;-65
2022/08/12 06:19:57;;;;;;;11.43;4.85;;;;;;;21.88;73.25;102076.78;4987961;28;20038;-63
2022/08/12 06:22:22;;;;;;;5.10;4.30;;;;;;;21.93;73.13;102096.16;5004756;28;20149;-64
2022/08/12 06:24:48;;;;;;;6.90;4.65;;;;;;;21.95;72.65;102086.19;5004388;28;20509;-65
2022/08/12 06:27:16;;;;;;;5.68;5.10;;;;;;;21.90;73.04;102090.97;5005790;28;20033;-64
2022/08/12 06:29:41;;;;;;;8.25;4.00;;;;;;;22.03;72.77;102079.50;4996586;28;20336;-65
2022/08/12 06:32:07;;;;;;;8.45;5.15;;;;;;;22.09;72.49;102074.56;4977988;28;20109;-63
2022/08/12 06:34:35;;;;;;;6.55;5.10;;;;;;;22.23;71.80;102078.19;4994760;28;20097;-64
2022/08/12 06:37:00;;;;;;;6.57;4.35;;;;;;;22.34;71.72;102072.16;4994831;28;20018;-64
2022/08/12 06:39:25;;;;;;;10.75;4.72;;;;;;;22.50;70.79;102068.44;5002262;28;20032;-63
2022/08/12 06:44:35;;;;;;;10.48;4.88;;;;;;;22.55;70.94;102074.41;5004682;28;20087;-63
2022/08/12 06:47:00;;;;;;;7.88;4.68;;;;;;;22.44;71.24;102073.28;5005401;28;20025;-64
2022/08/12 06:49:27;;;;;;;8.15;5.13;;;;;;;22.54;71.28;102065.47;5004878;28;20026;-64
2022/08/12 06:51:54;;;;;;;8.32;4.57;;;;;;;22.68;70.21;102067.28;5005768;28;20026;-64
2022/08/12 06:54:19;;;;;;;5.70;4.50;;;;;;;22.71;70.23;102069.75;5005603;28;20029;-64
2022/08/12 06:56:46;;;;;;;8.63;4.50;;;;;;;22.89;69.74;102072.19;5005134;28;20141;-64
2022/08/12 06:59:13;;;;;;;7.82;4.43;;;;;;;23.00;69.37;102062.53;5003728;28;20024;-63
2022/08/12 07:01:38;;;;;;;7.90;4.68;;;;;;;23.08;68.50;102076.28;5004024;28;20022;-63
2022/08/12 07:04:04;;;;;;;10.27;4.82;;;;;;;23.00;69.12;102070.59;5004088;28;20026;-64
2022/08/12 07:06:29;;;;;;;7.22;4.55;;;;;;;22.99;68.85;102067.03;4987098;28;20045;-64
2022/08/12 07:08:54;;;;;;;9.95;5.00;;;;;;;23.02;68.87;102074.03;5004856;28;20048;-64
2022/08/12 07:11:20;;;;;;;11.05;5.20;;;;;;;23.10;68.21;102071.69;5004809;28;20042;-63
2022/08/12 07:13:49;;;;;;;10.18;4.85;;;;;;;23.23;67.79;102069.88;5005264;28;20029;-67
2022/08/12 07:16:16;;;;;;;5.93;4.15;;;;;;;23.43;67.25;102059.59;5000665;28;20026;-64
2022/08/12 07:18:43;;;;;;;8.13;4.45;;;;;;;23.52;67.03;102065.31;4998954;28;20060;-64
2022/08/12 07:21:09;;;;;;;5.38;4.50;;;;;;;23.64;66.04;102067.13;5004062;28;20468;-63
2022/08/12 07:23:36;;;;;;;6.38;3.97;;;;;;;23.78;65.75;102070.69;5004035;28;20053;-65
2022/08/12 07:26:05;;;;;;;8.55;4.45;;;;;;;23.85;65.85;102069.25;5002635;28;20065;-64
2022/08/12 07:28:33;;;;;;;10.75;4.90;;;;;;;23.70;66.15;102077.47;5003219;28;20750;-65
2022/08/12 07:30:59;;;;;;;10.48;4.80;;;;;;;23.68;66.11;102084.78;5002373;28;20041;-63
2022/08/12 07:33:28;;;;;;;9.57;5.68;;;;;;;23.68;66.27;102071.31;5003650;28;20030;-65
2022/08/12 07:35:56;;;;;;;10.70;5.25;;;;;;;23.82;66.48;102077.56;5003534;28;20132;-67
2022/08/12 07:38:38;;;;;;;8.00;4.90;;;;;;;23.96;65.50;102074.72;5003843;28;20022;-64
2022/08/12 07:41:04;;;;;;;5.63;3.72;;;;;;;24.20;65.19;102084.72;5003487;28;20045;-64
2022/08/12 07:43:31;;;;;;;8.20;5.28;;;;;;;24.34;64.16;102080.16;5003712;28;20488;-63
2022/08/12 07:45:59;;;;;;;4.43;3.85;;;;;;;24.42;64.02;102076.91;5002644;28;20018;-62
2022/08/12 07:48:24;;;;;;;8.88;5.22;;;;;;;24.36;64.06;102076.38;5003360;28;20030;-64
2022/08/12 07:50:50;;;;;;;7.10;4.20;;;;;;;24.56;63.64;102073.19;5003160;28;20037;-64
2022/08/12 07:53:16;;;;;;;12.40;5.22;;;;;;;24.56;63.26;102078.59;4985064;28;20409;-63
2022/08/12 07:55:41;;;;;;;10.40;5.47;;;;;;;24.57;63.53;102085.69;5003612;28;20026;-64
2022/08/12 07:58:07;;;;;;;6.35;4.10;;;;;;;24.85;62.88;102089.00;5004287;28;20030;-63
2022/08/12 08:00:34;;;;;;;9.45;4.75;;;;;;;24.81;62.85;102084.81;5001480;28;20026;-64
2022/08/12 08:03:00;;;;;;;5.47;4.25;;;;;;;24.99;62.49;102086.13;5004473;28;20018;-63
2022/08/12 08:05:30;;;;;;;8.52;4.68;;;;;;;25.05;62.29;102092.06;5001363;28;20018;-65
2022/08/12 08:08:00;;;;;;;8.18;5.38;;;;;;;25.02;61.90;102086.88;4984897;28;20084;-64
2022/08/12 08:10:29;;;;;;;5.53;4.22;;;;;;;25.15;61.66;102093.06;5002767;28;20407;-65
2022/08/12 08:12:57;;;;;;;8.63;4.28;;;;;;;25.32;61.33;102088.22;5004087;28;20049;-65
2022/08/12 08:15:26;;;;;;;9.90;4.85;;;;;;;25.35;61.19;102090.66;5003431;28;20480;-64
2022/08/12 08:17:55;;;;;;;8.23;4.05;;;;;;;25.53;60.83;102082.97;4986813;28;20385;-64
2022/08/12 08:20:27;;;;;;;4.57;4.00;;;;;;;25.63;61.30;102083.13;4987291;28;20062;-64
2022/08/12 08:22:53;;;;;;;10.48;4.93;;;;;;;25.62;60.17;102081.41;4987676;28;20042;-65
2022/08/12 08:25:19;;;;;;;8.15;4.90;;;;;;;25.61;59.75;102085.06;5003691;28;20113;-63
2022/08/12 08:27:45;;;;;;;6.65;4.80;;;;;;;25.73;59.61;102085.94;5003275;28;20033;-65
2022/08/12 08:30:12;;;;;;;7.78;4.00;;;;;;;25.86;59.36;102088.53;5002908;28;20036;-65
2022/08/12 08:32:38;;;;;;;10.13;4.15;;;;;;;25.99;58.96;102088.41;5002327;28;20034;-64
2022/08/12 08:35:06;;;;;;;9.85;4.65;;;;;;;25.95;58.51;102086.94;5004006;28;20100;-65
2022/08/12 08:37:31;;;;;;;6.50;4.10;;;;;;;26.09;58.64;102088.50;5002440;28;20034;-64
2022/08/12 08:42:35;;;;;;;6.55;4.65;;;;;;;26.05;58.98;102076.25;5002467;28;20029;-64
2022/08/12 08:42:43;;;;;;;7.72;3.80;;;;;;;26.18;58.72;102082.38;4993301;28;20034;-65
2022/08/12 08:45:11;;;;;;;12.50;4.80;;;;;;;26.33;57.96;102079.41;4992027;28;20050;-65
2022/08/12 08:47:47;;;;;;;5.53;3.97;;;;;;;26.35;56.81;102082.84;4995086;28;20749;-64
2022/08/12 08:50:16;;;;;;;6.53;4.38;;;;;;;26.55;55.95;102088.47;5004060;28;20033;-65
2022/08/12 08:52:42;;;;;;;5.70;3.60;;;;;;;26.72;55.36;102085.19;5001858;28;20030;-65
2022/08/12 08:55:09;;;;;;;5.65;3.20;;;;;;;26.84;54.58;102087.84;5002534;28;20113;-64
2022/08/12 08:57:34;;;;;;;6.13;3.42;;;;;;;26.88;53.98;102083.91;5002129;28;20077;-63
2022/08/12 09:00:00;;;;;;;11.77;3.47;;;;;;;26.91;53.09;102089.03;5002215;28;20030;-65
2022/08/12 09:02:26;;;;;;;4.60;3.83;;;;;;;26.79;52.67;102092.78;5004306;28;20022;-63
2022/08/12 09:04:51;;;;;;;4.97;3.70;;;;;;;26.68;53.13;102088.28;5007666;28;20484;-65
2022/08/12 09:07:17;;;;;;;6.78;4.00;;;;;;;26.62;53.77;102086.97;5006967;28;20255;-66
2022/08/12 09:09:42;;;;;;;25.90;4.95;;;;;;;26.73;55.31;102083.38;5005602;28;20034;-66
2022/08/12 09:14:53;;;;;;;10.30;3.70;;;;;;;27.10;52.79;102082.09;4995433;28;20145;-64
2022/08/12 09:17:21;;;;;;;5.70;3.50;;;;;;;27.18;52.45;102073.34;4996348;28;20029;-65
2022/08/12 09:19:47;;;;;;;6.22;4.10;;;;;;;27.14;52.16;102075.44;4996935;28;20105;-65
2022/08/12 09:22:12;;;;;;;6.20;3.10;;;;;;;27.41;52.43;102078.59;4996356;28;20518;-64
2022/08/12 09:24:38;;;;;;;3.92;3.42;;;;;;;27.51;51.43;102074.06;5001693;28;20037;-64
2022/08/12 09:27:05;;;;;;;4.32;3.55;;;;;;;27.73;50.37;102075.81;5005907;28;20041;-63
2022/08/12 09:29:32;;;;;;;5.35;3.08;;;;;;;27.71;51.18;102072.38;5005265;28;20404;-64
2022/08/12 09:31:58;;;;;;;4.32;3.60;;;;;;;27.65;50.84;102075.63;4988854;28;20072;-63
2022/08/12 09:34:26;;;;;;;15.90;4.50;;;;;;;27.79;49.45;102069.00;5007026;28;20523;-64
2022/08/12 09:36:52;;;;;;;26.05;3.88;;;;;;;27.96;49.20;102072.88;5006292;28;20142;-65
2022/08/12 09:39:17;;;;;;;8.88;2.65;;;;;;;28.15;49.03;102068.53;5006600;28;20026;-63
2022/08/12 09:41:44;;;;;;;6.40;3.50;;;;;;;28.11;47.85;102058.97;4988968;28;20025;-64
2022/08/12 09:46:54;;;;;;;9.68;3.13;;;;;;;28.42;48.13;102063.47;5002427;28;20121;-63
2022/08/12 09:49:20;;;;;;;8.38;3.53;;;;;;;28.46;48.35;102057.63;5005480;28;20121;-64
2022/08/12 09:51:46;;;;;;;8.13;3.30;;;;;;;28.50;47.63;102056.31;5004786;28;20034;-64
2022/08/12 09:54:12;;;;;;;4.13;2.97;;;;;;;28.39;47.14;102053.75;5005306;28;20096;-63
2022/08/12 09:56:38;;;;;;;5.88;2.72;;;;;;;28.54;47.56;102056.03;5004750;28;20726;-65
2022/08/12 09:59:06;;;;;;;7.35;3.05;;;;;;;28.52;45.42;102061.59;5004006;28;20566;-64
2022/08/12 10:01:32;;;;;;;8.40;3.10;;;;;;;28.62;45.15;102057.03;5004494;28;20010;-65
2022/08/12 10:03:59;;;;;;;6.60;2.90;;;;;;;28.51;45.46;102041.75;5005245;28;20033;-64
2022/08/12 10:06:26;;;;;;;4.45;2.80;;;;;;;28.75;46.14;102045.06;5005285;28;20026;-65
2022/08/12 10:08:52;;;;;;;4.60;2.80;;;;;;;29.06;45.98;102054.91;5006376;28;20036;-66
2022/08/12 10:14:01;;;;;;;7.55;3.22;;;;;;;29.20;45.47;102040.84;5005385;28;20061;-65
2022/08/12 10:16:31;;;;;;;13.18;2.90;;;;;;;29.46;45.68;102037.50;5005766;28;21158;-64
2022/08/12 10:19:01;;;;;;;9.10;3.33;;;;;;;29.45;45.11;102041.22;5006712;28;20037;-66
2022/08/12 10:21:35;;;;;;;9.52;2.88;;;;;;;29.66;43.43;102032.03;4988659;28;20022;-66
2022/08/12 10:24:10;;;;;;;10.63;3.08;;;;;;;29.82;44.02;102034.06;4999932;28;20412;-64
2022/08/12 10:29:38;;;;;;;7.82;2.78;;;;;;;29.70;43.24;102022.56;4990011;28;20118;-64
2022/08/12 10:32:22;;;;;;;5.13;2.45;;;;;;;30.10;42.09;102016.91;4988244;28;20034;-63
2022/08/12 10:34:51;;;;;;;7.10;2.70;;;;;;;29.95;42.22;102013.84;4986470;28;20030;-65
2022/08/12 10:37:17;;;;;;;5.35;2.55;;;;;;;30.20;41.61;102015.00;4986496;28;20027;-65
2022/08/12 10:39:44;;;;;;;10.70;3.03;;;;;;;30.46;42.15;102018.81;4986376;28;20030;-66
2022/08/12 10:44:59;;;;;;;7.70;3.30;;;;;;;30.64;41.76;102010.66;4985382;28;20037;-64
2022/08/12 10:47:29;;;;;;;12.00;3.10;;;;;;;30.82;39.97;102005.19;4995283;28;20022;-63
2022/08/12 10:49:55;;;;;;;10.20;3.28;;;;;;;30.98;39.72;102004.47;5004101;28;20061;-64
2022/08/12 10:52:23;;;;;;;10.35;3.00;;;;;;;30.94;39.63;102005.75;5004291;28;20507;-64
2022/08/12 10:54:49;;;;;;;3.38;2.25;;;;;;;31.36;37.99;102003.34;5004263;28;20030;-63
2022/08/12 10:57:15;;;;;;;8.52;3.40;;;;;;;31.23;36.31;102001.88;5002297;28;20060;-64
2022/08/12 10:59:41;;;;;;;12.35;2.70;;;;;;;31.52;37.20;101997.09;4994214;28;20108;-65
2022/08/12 11:02:12;;;;;;;11.68;2.97;;;;;;;31.57;37.23;101986.56;4977828;28;20115;-64
2022/08/12 11:04:39;;;;;;;5.53;2.72;;;;;;;31.60;36.61;101986.22;4997237;28;20413;-64
2022/08/12 11:07:05;;;;;;;9.52;2.70;;;;;;;31.74;36.44;101987.47;4997379;28;20045;-64
2022/08/12 11:09:30;;;;;;;7.30;2.47;;;;;;;31.81;36.59;101984.09;5004055;28;20037;-63
2022/08/12 11:11:58;;;;;;;11.05;2.60;;;;;;;31.57;35.26;101983.00;5004556;28;20107;-63
2022/08/12 11:14:27;;;;;;;6.03;2.53;;;;;;;31.67;34.49;101978.25;5004141;28;20386;-64
2022/08/12 11:17:00;;;;;;;10.13;2.80;;;;;;;31.87;34.95;101981.53;4995613;28;20282;-64
2022/08/12 11:19:27;;;;;;;10.75;2.72;;;;;;;31.98;35.84;101976.81;4994811;28;20159;-63
2022/08/12 11:21:54;;;;;;;4.32;2.05;;;;;;;31.83;34.29;101971.13;5005126;28;20481;-61
2022/08/12 11:24:20;;;;;;;4.20;2.35;;;;;;;32.02;35.03;101968.16;5004458;28;20246;-63
2022/08/12 11:26:45;;;;;;;9.23;2.20;;;;;;;32.44;33.05;101970.06;5001262;28;20018;-65
2022/08/12 11:29:10;;;;;;;6.13;2.17;;;;;;;32.58;34.11;101969.38;5000228;28;20381;-65
2022/08/12 11:31:36;;;;;;;8.45;2.42;;;;;;;32.83;32.48;101973.97;5004677;28;20026;-64
2022/08/12 11:34:01;;;;;;;9.93;2.33;;;;;;;32.72;30.23;101961.53;5003177;28;20117;-63
2022/08/12 11:36:27;;;;;;;6.40;2.50;;;;;;;32.61;31.00;101960.00;5003700;28;20104;-63
2022/08/12 11:38:53;;;;;;;6.85;1.88;;;;;;;33.08;31.07;101960.28;5004822;28;20701;-65
2022/08/12 11:41:19;;;;;;;5.68;2.22;;;;;;;33.27;30.27;101959.00;5004982;28;20037;-65
2022/08/12 11:43:45;;;;;;;7.85;2.10;;;;;;;33.11;31.26;101949.00;5003892;28;20022;-65
2022/08/12 11:46:10;;;;;;;8.00;2.10;;;;;;;32.83;30.52;101954.88;5004586;28;20396;-66
2022/08/12 11:48:38;;;;;;;5.22;2.20;;;;;;;33.11;31.12;101949.00;5002704;28;20018;-64
2022/08/12 11:51:04;;;;;;;4.65;2.35;;;;;;;33.47;31.01;101943.03;5004126;28;20062;-63
2022/08/12 11:53:30;;;;;;;8.00;2.30;;;;;;;33.17;29.42;101942.84;5002746;28;20465;-64
2022/08/12 11:55:55;;;;;;;6.20;2.22;;;;;;;33.22;29.95;101940.41;5003429;28;20025;-65
2022/08/12 11:58:21;;;;;;;7.28;2.15;;;;;;;33.37;29.70;101937.78;5004578;28;20022;-63
2022/08/12 12:00:46;;;;;;;8.88;2.03;;;;;;;33.64;29.11;101935.63;4994587;28;20034;-65
2022/08/12 12:03:11;;;;;;;3.78;2.15;;;;;;;33.65;26.74;101934.59;4987233;28;20330;-64
2022/08/12 12:05:37;;;;;;;5.30;2.20;;;;;;;33.58;27.34;101933.59;4999275;28;20018;-64
2022/08/12 12:08:02;;;;;;;5.65;2.25;;;;;;;33.53;27.20;101934.13;4996697;28;20065;-61
2022/08/12 12:10:28;;;;;;;5.45;1.92;;;;;;;33.41;26.29;101925.47;5002833;28;20141;-65
2022/08/12 12:12:53;;;;;;;7.57;2.15;;;;;;;33.67;27.06;101925.38;5003361;28;20026;-62
2022/08/12 12:15:18;;;;;;;6.35;2.17;;;;;;;34.10;26.95;101919.44;5002181;28;20032;-64
2022/08/12 12:17:44;;;;;;;7.85;2.00;;;;;;;34.45;27.27;101921.69;5003311;28;20063;-63
2022/08/12 12:20:10;;;;;;;3.95;1.88;;;;;;;34.38;25.36;101924.31;4992522;28;20511;-63
2022/08/12 12:22:37;;;;;;;4.55;1.98;;;;;;;34.97;25.80;101924.59;5004058;28;20021;-63
2022/08/12 12:25:03;;;;;;;7.80;1.60;;;;;;;35.29;24.55;101917.03;5004339;28;20026;-63
2022/08/12 12:27:28;;;;;;;4.07;1.90;;;;;;;35.74;24.10;101905.94;5003780;28;20053;-62
2022/08/12 12:29:56;;;;;;;3.88;2.03;;;;;;;36.45;22.89;101908.91;5001403;28;20033;-64
2022/08/12 12:32:21;;;;;;;;;;;;;;;36.88;21.53;101913.41;5004489;28;20073;-64
2022/08/12 12:34:47;;;;;;;7.93;2.07;;;;;;;36.94;21.84;101916.38;5002037;28;19948;-64
2022/08/12 12:37:12;;;;;;;4.05;1.98;;;;;;;37.50;21.37;101906.25;4997848;28;20053;-63
2022/08/12 12:39:42;;;;;;;7.10;1.90;;;;;;;37.92;20.27;101889.63;4988147;28;20491;-64
2022/08/12 12:42:07;;;;;;;3.88;1.80;;;;;;;37.79;21.88;101906.94;5006018;28;20022;-63
2022/08/12 12:44:33;;;;;;;7.07;2.25;;;;;;;37.14;21.30;101897.25;4993743;28;20033;-63
2022/08/12 12:46:58;;;;;;;3.03;1.80;;;;;;;37.21;22.66;101895.41;4990949;28;20073;-63
2022/08/12 12:49:23;;;;;;;5.57;1.95;;;;;;;37.88;22.19;101896.59;4987378;28;20057;-64
2022/08/12 12:51:49;;;;;;;4.13;2.00;;;;;;;38.07;21.21;101896.81;4988899;28;20543;-64
2022/08/12 12:54:14;;;;;;;4.72;2.35;;;;;;;38.02;21.59;101892.81;4988769;28;20026;-64
2022/08/12 12:56:40;;;;;;;8.02;1.95;;;;;;;37.38;21.28;101893.09;4988318;28;20121;-63
2022/08/12 12:59:07;;;;;;;6.38;1.90;;;;;;;37.80;21.98;101881.16;4992375;28;20033;-63
2022/08/12 13:01:32;;;;;;;6.03;1.98;;;;;;;37.97;21.93;101880.72;5007532;28;20033;-67
2022/08/12 13:03:58;;;;;;;8.25;1.90;;;;;;;38.07;22.52;101877.56;5006914;28;20025;-64
2022/08/12 13:06:24;;;;;;;7.05;2.08;;;;;;;38.40;22.12;101876.72;5006985;28;20026;-63